Aurora, South Dakota
Current Conditions -  °F | °C
As of 4:15 PM on Tuesday 25 Nov 2014 (Local Time) from KMDS Reporting Station
Clear Clear  
Wind Chill: -5°   Ceiling: Unl
Heat Index:   Visibility: 10mi
Dew Point: -4°   Wind: 10mph
Humidity: 75%   Direction: 150°SSE
Pressure: 29.84"   Gusts: NA
Location:  44.28°N, 96.69°W
Report Text: KMDS 252215Z AUTO 15009KT 10SM CLR 00/M04 A2984 RMK AO2
Loading
Personal Weather Stations






























Interactive Weather Map New forecast layout! Learn more

10-Day Weather Forecast

Advertisements
Track Severe Weather on mobile